createdAt,value
2019-03-27T17:30:53.867Z,15.13
2019-03-27T17:33:23.879Z,15.67
2019-03-27T17:35:55.680Z,12.93
2019-03-27T17:38:27.673Z,13.57
2019-03-27T17:40:57.713Z,14.23
2019-03-27T17:43:27.700Z,12.47
2019-03-27T17:45:58.523Z,13.50
2019-03-27T17:48:28.673Z,17.80
2019-03-27T17:51:01.069Z,13.40
2019-03-27T17:53:32.273Z,18.77
2019-03-27T17:56:03.421Z,13.13
2019-03-27T17:58:33.652Z,14.97
2019-03-27T18:01:05.441Z,17.13
2019-03-27T18:03:35.366Z,10.93
2019-03-27T18:06:06.671Z,14.30
2019-03-27T18:08:37.743Z,24.47
2019-03-27T18:11:09.098Z,15.87
2019-03-27T18:13:39.107Z,14.10
2019-03-27T18:16:09.372Z,16.03
2019-03-27T18:18:39.619Z,15.63
2019-03-27T18:21:10.151Z,18.20
2019-03-27T18:23:46.319Z,15.73
2019-03-27T18:26:12.812Z,16.33
2019-03-27T18:28:43.040Z,19.53
2019-03-27T18:31:14.501Z,10.63
2019-03-27T18:33:46.610Z,13.53
2019-03-27T18:36:18.333Z,11.90
2019-03-27T18:38:49.099Z,14.57
2019-03-27T18:41:19.762Z,13.90
2019-03-27T18:43:50.169Z,19.33
2019-03-27T18:46:21.445Z,16.10
2019-03-27T18:48:52.429Z,15.23
2019-03-27T18:51:22.532Z,16.07
2019-03-27T18:53:59.426Z,15.73
2019-03-27T18:56:26.218Z,14.50
2019-03-27T18:58:56.420Z,13.73
2019-03-27T19:01:27.082Z,16.27
2019-03-27T19:03:57.346Z,11.63
2019-03-27T19:06:27.257Z,15.63
2019-03-27T19:08:57.335Z,15.37
2019-03-27T19:11:27.430Z,14.83
2019-03-27T19:13:57.349Z,15.93
2019-03-27T19:16:28.820Z,14.57
2019-03-27T19:18:58.798Z,13.97
2019-03-27T19:21:28.789Z,13.70
2019-03-27T19:24:12.312Z,20.63
2019-03-27T19:26:30.329Z,13.73
2019-03-27T19:29:00.254Z,13.27
2019-03-27T19:31:30.232Z,17.23
2019-03-27T19:34:00.260Z,15.50
2019-03-27T19:36:30.337Z,14.30
2019-03-27T19:39:01.522Z,13.00
2019-03-27T19:41:33.089Z,16.77
2019-03-27T19:44:03.172Z,13.20
2019-03-27T19:46:34.201Z,19.13
2019-03-27T19:49:04.382Z,35.53
2019-03-27T19:51:34.306Z,26.23
2019-03-27T19:54:04.410Z,21.10
2019-03-27T19:56:34.412Z,14.37
2019-03-27T19:59:04.397Z,18.77
2019-03-27T20:01:35.416Z,15.27
2019-03-27T20:04:05.591Z,17.17
2019-03-27T20:06:35.509Z,13.63
2019-03-27T20:09:07.500Z,15.77
2019-03-27T20:11:37.543Z,15.43
2019-03-27T20:14:08.691Z,15.20
2019-03-27T20:16:38.602Z,17.10
2019-03-27T20:19:08.581Z,20.03
2019-03-27T20:21:38.494Z,14.17
2019-03-27T20:24:09.191Z,16.03
2019-03-27T20:26:39.870Z,18.17
2019-03-27T20:29:10.650Z,13.93
2019-03-27T20:31:41.269Z,18.47
2019-03-27T20:34:11.292Z,19.50
2019-03-27T20:36:41.368Z,19.07
2019-03-27T20:39:11.283Z,22.60
2019-03-27T20:41:41.476Z,19.43
2019-03-27T20:44:11.402Z,22.03
2019-03-27T20:47:00.416Z,19.07
2019-03-27T20:49:30.821Z,18.83
2019-03-27T20:52:01.093Z,17.37
2019-03-27T20:54:31.389Z,19.57
2019-03-27T20:57:02.236Z,18.87
2019-03-27T20:59:32.571Z,15.83
2019-03-27T21:02:02.646Z,18.77
2019-03-27T21:04:33.881Z,18.60
2019-03-27T21:07:05.241Z,16.53
2019-03-27T21:09:37.078Z,22.37
2019-03-27T21:12:07.284Z,21.77
2019-03-27T21:14:38.229Z,20.80
2019-03-27T21:17:09.482Z,18.87
2019-03-27T21:19:39.502Z,20.23
2019-03-27T21:22:09.489Z,22.73
2019-03-27T21:30:44.634Z,16.97
2019-03-27T21:33:21.698Z,15.70
2019-03-27T21:36:01.528Z,19.50
2019-03-27T21:44:31.321Z,17.53
2019-03-27T21:47:01.357Z,21.77
2019-03-27T21:49:31.518Z,19.20
2019-03-27T21:52:01.754Z,21.57
2019-03-27T21:54:34.596Z,26.53
2019-03-27T21:57:06.581Z,24.97
2019-03-27T21:59:36.819Z,29.50
2019-03-27T22:02:08.729Z,31.43
2019-03-27T22:04:38.864Z,29.13
2019-03-27T22:07:09.034Z,33.17
